Terminal Aerodrome Forecast
Issued by NWS

Home | Current Version | Previous Version | Text Only | Print | Product List | Glossary On
Versions: 1 2 3 4 5 6 7 8 9 10 11 12 13 14 15 16 17 18 19 20 21 22 23 24 25 26 27 28 29 30 31 32 33 34 35 36 37 38 39 40
169
FTUS45 KSLC 101810 AAA
TAF36U
TAF AMD
K36U 101810Z 1018/1118 22013G22KT 5SM -RA SCT007 OVC030
      TEMPO 1018/1022 3SM -RASN BKN007 OVC025
     FM110300 VRB04KT 4SM -RASN SCT020 BKN030
     FM111000 VRB04KT P6SM VCSH SCT030 BKN040=

USA.gov is the U.S. government's official web portal to all federal, state and local government web resources and services.